sensor_id;sensor_type;location;lat;lon;timestamp;P1;durP1;ratioP1;P2;durP2;ratioP2
16770;SDS011;8503;52.472;13.344;2024-03-06T00:00:06;11.77;;;6.30;;
16770;SDS011;8503;52.472;13.344;2024-03-06T00:01:30;12.80;;;6.60;;
16770;SDS011;8503;52.472;13.344;2024-03-06T00:02:55;12.82;;;5.88;;
16770;SDS011;8503;52.472;13.344;2024-03-06T00:04:17;11.25;;;6.57;;
16770;SDS011;8503;52.472;13.344;2024-03-06T00:05:43;12.35;;;6.35;;
16770;SDS011;8503;52.472;13.344;2024-03-06T00:07:06;9.35;;;5.15;;
16770;SDS011;8503;52.472;13.344;2024-03-06T00:08:29;12.98;;;5.93;;
16770;SDS011;8503;52.472;13.344;2024-03-06T00:09:52;15.23;;;6.72;;
16770;SDS011;8503;52.472;13.344;2024-03-06T00:11:16;11.90;;;6.45;;
16770;SDS011;8503;52.472;13.344;2024-03-06T00:12:39;9.98;;;5.70;;
16770;SDS011;8503;52.472;13.344;2024-03-06T00:14:02;10.30;;;6.13;;
16770;SDS011;8503;52.472;13.344;2024-03-06T00:15:26;9.57;;;5.82;;
16770;SDS011;8503;52.472;13.344;2024-03-06T00:16:51;11.13;;;5.57;;
16770;SDS011;8503;52.472;13.344;2024-03-06T00:18:13;10.85;;;6.15;;
16770;SDS011;8503;52.472;13.344;2024-03-06T00:19:37;10.25;;;6.07;;
16770;SDS011;8503;52.472;13.344;2024-03-06T00:21:00;11.25;;;6.78;;
16770;SDS011;8503;52.472;13.344;2024-03-06T00:22:23;12.27;;;5.93;;
16770;SDS011;8503;52.472;13.344;2024-03-06T00:23:46;11.20;;;5.97;;
16770;SDS011;8503;52.472;13.344;2024-03-06T00:25:09;14.45;;;6.47;;
16770;SDS011;8503;52.472;13.344;2024-03-06T00:26:32;10.30;;;5.85;;
16770;SDS011;8503;52.472;13.344;2024-03-06T00:27:55;9.38;;;6.00;;
16770;SDS011;8503;52.472;13.344;2024-03-06T00:29:17;8.77;;;5.93;;
16770;SDS011;8503;52.472;13.344;2024-03-06T00:30:41;9.80;;;5.95;;
16770;SDS011;8503;52.472;13.344;2024-03-06T00:32:05;10.20;;;5.80;;
16770;SDS011;8503;52.472;13.344;2024-03-06T00:33:29;12.40;;;7.40;;
16770;SDS011;8503;52.472;13.344;2024-03-06T00:34:52;13.52;;;6.55;;
16770;SDS011;8503;52.472;13.344;2024-03-06T00:36:15;13.93;;;6.68;;
16770;SDS011;8503;52.472;13.344;2024-03-06T00:37:38;12.05;;;6.30;;
16770;SDS011;8503;52.472;13.344;2024-03-06T00:39:02;8.90;;;5.28;;
16770;SDS011;8503;52.472;13.344;2024-03-06T00:40:25;12.27;;;5.70;;
16770;SDS011;8503;52.472;13.344;2024-03-06T00:41:51;11.35;;;6.35;;
16770;SDS011;8503;52.472;13.344;2024-03-06T00:43:14;12.25;;;6.15;;
16770;SDS011;8503;52.472;13.344;2024-03-06T00:44:38;12.07;;;6.53;;
16770;SDS011;8503;52.472;13.344;2024-03-06T00:46:00;10.90;;;6.28;;
16770;SDS011;8503;52.472;13.344;2024-03-06T00:47:25;12.18;;;6.65;;
16770;SDS011;8503;52.472;13.344;2024-03-06T00:48:48;11.38;;;5.97;;
16770;SDS011;8503;52.472;13.344;2024-03-06T00:50:12;13.60;;;6.38;;
16770;SDS011;8503;52.472;13.344;2024-03-06T00:51:34;8.75;;;5.82;;
16770;SDS011;8503;52.472;13.344;2024-03-06T00:53:09;12.15;;;6.38;;
16770;SDS011;8503;52.472;13.344;2024-03-06T00:54:31;9.10;;;5.32;;
16770;SDS011;8503;52.472;13.344;2024-03-06T00:55:55;12.25;;;5.70;;
16770;SDS011;8503;52.472;13.344;2024-03-06T00:57:17;13.68;;;6.65;;
16770;SDS011;8503;52.472;13.344;2024-03-06T00:58:41;10.55;;;5.88;;
16770;SDS011;8503;52.472;13.344;2024-03-06T01:00:03;11.88;;;6.85;;
16770;SDS011;8503;52.472;13.344;2024-03-06T01:01:34;9.77;;;6.35;;
16770;SDS011;8503;52.472;13.344;2024-03-06T01:02:58;14.95;;;5.72;;
16770;SDS011;8503;52.472;13.344;2024-03-06T01:04:21;10.52;;;6.38;;
16770;SDS011;8503;52.472;13.344;2024-03-06T01:05:44;13.50;;;6.45;;
16770;SDS011;8503;52.472;13.344;2024-03-06T01:07:07;8.32;;;5.10;;
16770;SDS011;8503;52.472;13.344;2024-03-06T01:08:29;13.63;;;6.20;;
16770;SDS011;8503;52.472;13.344;2024-03-06T01:09:53;10.55;;;5.82;;
16770;SDS011;8503;52.472;13.344;2024-03-06T01:11:15;15.52;;;7.32;;
16770;SDS011;8503;52.472;13.344;2024-03-06T01:12:40;14.68;;;6.72;;
16770;SDS011;8503;52.472;13.344;2024-03-06T01:14:06;11.93;;;5.68;;
16770;SDS011;8503;52.472;13.344;2024-03-06T01:15:30;11.75;;;6.07;;
16770;SDS011;8503;52.472;13.344;2024-03-06T01:16:52;9.85;;;5.43;;
16770;SDS011;8503;52.472;13.344;2024-03-06T01:18:18;11.18;;;6.22;;
16770;SDS011;8503;52.472;13.344;2024-03-06T01:19:41;11.20;;;6.97;;
16770;SDS011;8503;52.472;13.344;2024-03-06T01:21:04;10.80;;;5.53;;
16770;SDS011;8503;52.472;13.344;2024-03-06T01:22:27;10.55;;;5.93;;
16770;SDS011;8503;52.472;13.344;2024-03-06T01:23:50;10.63;;;5.50;;
16770;SDS011;8503;52.472;13.344;2024-03-06T01:25:12;10.60;;;5.80;;
16770;SDS011;8503;52.472;13.344;2024-03-06T01:26:36;11.57;;;5.90;;
16770;SDS011;8503;52.472;13.344;2024-03-06T01:27:59;10.25;;;6.38;;
16770;SDS011;8503;52.472;13.344;2024-03-06T01:29:22;10.95;;;5.88;;
16770;SDS011;8503;52.472;13.344;2024-03-06T01:30:44;9.95;;;5.43;;
16770;SDS011;8503;52.472;13.344;2024-03-06T01:32:08;9.15;;;5.35;;
16770;SDS011;8503;52.472;13.344;2024-03-06T01:33:33;11.45;;;5.43;;
16770;SDS011;8503;52.472;13.344;2024-03-06T01:36:18;11.85;;;5.38;;
16770;SDS011;8503;52.472;13.344;2024-03-06T01:37:42;11.93;;;5.10;;
16770;SDS011;8503;52.472;13.344;2024-03-06T01:39:04;12.50;;;6.22;;
16770;SDS011;8503;52.472;13.344;2024-03-06T01:40:28;8.13;;;4.63;;
16770;SDS011;8503;52.472;13.344;2024-03-06T01:41:51;10.13;;;5.30;;
16770;SDS011;8503;52.472;13.344;2024-03-06T01:43:21;14.25;;;5.60;;
16770;SDS011;8503;52.472;13.344;2024-03-06T01:44:44;9.48;;;4.85;;
16770;SDS011;8503;52.472;13.344;2024-03-06T01:46:08;13.50;;;6.18;;
16770;SDS011;8503;52.472;13.344;2024-03-06T01:47:31;8.90;;;5.28;;
16770;SDS011;8503;52.472;13.344;2024-03-06T01:48:56;11.48;;;5.43;;
16770;SDS011;8503;52.472;13.344;2024-03-06T01:50:22;9.82;;;5.35;;
16770;SDS011;8503;52.472;13.344;2024-03-06T01:51:48;8.90;;;5.05;;
16770;SDS011;8503;52.472;13.344;2024-03-06T01:53:12;9.82;;;5.63;;
16770;SDS011;8503;52.472;13.344;2024-03-06T01:54:35;7.60;;;5.05;;
16770;SDS011;8503;52.472;13.344;2024-03-06T01:55:58;8.48;;;4.78;;
16770;SDS011;8503;52.472;13.344;2024-03-06T01:57:22;13.63;;;5.25;;
16770;SDS011;8503;52.472;13.344;2024-03-06T01:58:45;11.23;;;5.82;;
16770;SDS011;8503;52.472;13.344;2024-03-06T02:00:09;8.02;;;4.60;;
16770;SDS011;8503;52.472;13.344;2024-03-06T02:01:35;10.88;;;5.75;;
16770;SDS011;8503;52.472;13.344;2024-03-06T02:02:59;9.02;;;4.93;;
16770;SDS011;8503;52.472;13.344;2024-03-06T02:04:24;13.57;;;6.57;;
16770;SDS011;8503;52.472;13.344;2024-03-06T02:05:49;9.63;;;5.85;;
16770;SDS011;8503;52.472;13.344;2024-03-06T02:07:13;11.25;;;6.15;;
16770;SDS011;8503;52.472;13.344;2024-03-06T02:08:38;11.23;;;5.95;;
16770;SDS011;8503;52.472;13.344;2024-03-06T02:10:00;9.88;;;4.85;;
16770;SDS011;8503;52.472;13.344;2024-03-06T02:11:25;11.50;;;6.00;;
16770;SDS011;8503;52.472;13.344;2024-03-06T02:12:49;7.97;;;5.63;;
16770;SDS011;8503;52.472;13.344;2024-03-06T02:14:14;13.32;;;6.05;;
16770;SDS011;8503;52.472;13.344;2024-03-06T02:15:36;13.48;;;5.85;;
16770;SDS011;8503;52.472;13.344;2024-03-06T02:17:00;9.27;;;5.47;;
16770;SDS011;8503;52.472;13.344;2024-03-06T02:18:22;12.25;;;5.68;;
16770;SDS011;8503;52.472;13.344;2024-03-06T02:19:49;10.07;;;6.55;;
16770;SDS011;8503;52.472;13.344;2024-03-06T02:21:13;12.48;;;6.03;;
16770;SDS011;8503;52.472;13.344;2024-03-06T02:23:58;11.48;;;5.55;;
16770;SDS011;8503;52.472;13.344;2024-03-06T02:25:23;11.63;;;6.78;;
16770;SDS011;8503;52.472;13.344;2024-03-06T02:26:46;11.65;;;5.63;;
16770;SDS011;8503;52.472;13.344;2024-03-06T02:28:09;9.80;;;5.50;;
16770;SDS011;8503;52.472;13.344;2024-03-06T02:29:32;8.25;;;5.20;;
16770;SDS011;8503;52.472;13.344;2024-03-06T02:30:55;12.38;;;6.38;;
16770;SDS011;8503;52.472;13.344;2024-03-06T02:32:18;9.00;;;5.70;;
16770;SDS011;8503;52.472;13.344;2024-03-06T02:33:41;11.38;;;5.93;;
16770;SDS011;8503;52.472;13.344;2024-03-06T02:35:04;11.88;;;6.63;;
16770;SDS011;8503;52.472;13.344;2024-03-06T02:36:31;12.07;;;4.95;;
16770;SDS011;8503;52.472;13.344;2024-03-06T02:37:54;11.30;;;5.70;;
16770;SDS011;8503;52.472;13.344;2024-03-06T02:39:18;13.00;;;6.88;;
16770;SDS011;8503;52.472;13.344;2024-03-06T02:40:42;11.90;;;6.20;;
16770;SDS011;8503;52.472;13.344;2024-03-06T02:42:06;9.40;;;6.38;;
16770;SDS011;8503;52.472;13.344;2024-03-06T02:43:28;10.10;;;5.65;;
16770;SDS011;8503;52.472;13.344;2024-03-06T02:44:52;9.82;;;5.22;;
16770;SDS011;8503;52.472;13.344;2024-03-06T02:46:15;12.63;;;5.47;;
16770;SDS011;8503;52.472;13.344;2024-03-06T02:47:38;12.55;;;5.78;;
16770;SDS011;8503;52.472;13.344;2024-03-06T02:49:01;9.40;;;4.72;;
16770;SDS011;8503;52.472;13.344;2024-03-06T02:50:24;13.18;;;6.03;;
16770;SDS011;8503;52.472;13.344;2024-03-06T02:51:48;10.70;;;6.55;;
16770;SDS011;8503;52.472;13.344;2024-03-06T02:53:12;8.52;;;4.75;;
16770;SDS011;8503;52.472;13.344;2024-03-06T02:54:36;12.07;;;5.75;;
16770;SDS011;8503;52.472;13.344;2024-03-06T02:55:59;7.63;;;4.63;;
16770;SDS011;8503;52.472;13.344;2024-03-06T02:57:21;8.13;;;5.05;;
16770;SDS011;8503;52.472;13.344;2024-03-06T02:58:45;9.30;;;5.22;;
16770;SDS011;8503;52.472;13.344;2024-03-06T03:00:08;10.07;;;5.40;;
16770;SDS011;8503;52.472;13.344;2024-03-06T03:01:34;11.77;;;5.65;;
16770;SDS011;8503;52.472;13.344;2024-03-06T03:02:57;10.18;;;5.32;;
16770;SDS011;8503;52.472;13.344;2024-03-06T03:04:20;15.35;;;6.05;;
16770;SDS011;8503;52.472;13.344;2024-03-06T03:05:43;8.98;;;4.50;;
16770;SDS011;8503;52.472;13.344;2024-03-06T03:07:08;8.85;;;5.00;;
16770;SDS011;8503;52.472;13.344;2024-03-06T03:08:31;10.27;;;5.22;;
16770;SDS011;8503;52.472;13.344;2024-03-06T03:09:55;7.43;;;4.45;;
16770;SDS011;8503;52.472;13.344;2024-03-06T03:11:18;6.20;;;4.05;;
16770;SDS011;8503;52.472;13.344;2024-03-06T03:12:41;7.68;;;4.90;;
16770;SDS011;8503;52.472;13.344;2024-03-06T03:14:04;12.15;;;5.93;;
16770;SDS011;8503;52.472;13.344;2024-03-06T03:15:28;8.05;;;5.28;;
16770;SDS011;8503;52.472;13.344;2024-03-06T03:16:50;11.25;;;5.75;;
16770;SDS011;8503;52.472;13.344;2024-03-06T03:18:14;12.82;;;5.80;;
16770;SDS011;8503;52.472;13.344;2024-03-06T03:19:37;11.95;;;6.00;;
16770;SDS011;8503;52.472;13.344;2024-03-06T03:21:01;10.27;;;5.70;;
16770;SDS011;8503;52.472;13.344;2024-03-06T03:22:25;13.38;;;5.90;;
16770;SDS011;8503;52.472;13.344;2024-03-06T03:25:11;9.52;;;3.90;;
16770;SDS011;8503;52.472;13.344;2024-03-06T03:26:37;10.40;;;4.82;;
16770;SDS011;8503;52.472;13.344;2024-03-06T03:27:59;11.07;;;6.05;;
16770;SDS011;8503;52.472;13.344;2024-03-06T03:29:23;8.65;;;6.30;;
16770;SDS011;8503;52.472;13.344;2024-03-06T03:30:45;14.00;;;6.78;;
16770;SDS011;8503;52.472;13.344;2024-03-06T03:32:09;12.27;;;5.70;;
16770;SDS011;8503;52.472;13.344;2024-03-06T03:33:32;9.48;;;5.70;;
16770;SDS011;8503;52.472;13.344;2024-03-06T03:34:57;10.05;;;5.88;;
16770;SDS011;8503;52.472;13.344;2024-03-06T03:36:19;10.65;;;5.85;;
16770;SDS011;8503;52.472;13.344;2024-03-06T03:37:44;11.38;;;5.88;;
16770;SDS011;8503;52.472;13.344;2024-03-06T03:39:07;10.95;;;5.68;;
16770;SDS011;8503;52.472;13.344;2024-03-06T03:40:36;12.75;;;5.38;;
16770;SDS011;8503;52.472;13.344;2024-03-06T03:41:58;10.02;;;5.78;;
16770;SDS011;8503;52.472;13.344;2024-03-06T03:43:22;9.95;;;6.35;;
16770;SDS011;8503;52.472;13.344;2024-03-06T03:44:45;9.55;;;5.70;;
16770;SDS011;8503;52.472;13.344;2024-03-06T03:46:08;12.70;;;5.45;;
16770;SDS011;8503;52.472;13.344;2024-03-06T03:47:31;10.10;;;5.53;;
16770;SDS011;8503;52.472;13.344;2024-03-06T03:48:55;9.18;;;5.43;;
16770;SDS011;8503;52.472;13.344;2024-03-06T03:50:18;11.57;;;5.88;;
16770;SDS011;8503;52.472;13.344;2024-03-06T03:51:41;11.68;;;5.75;;
16770;SDS011;8503;52.472;13.344;2024-03-06T03:53:05;10.57;;;6.00;;
16770;SDS011;8503;52.472;13.344;2024-03-06T03:55:51;10.88;;;5.47;;
16770;SDS011;8503;52.472;13.344;2024-03-06T03:57:14;11.90;;;6.25;;
16770;SDS011;8503;52.472;13.344;2024-03-06T03:58:38;11.75;;;6.07;;
16770;SDS011;8503;52.472;13.344;2024-03-06T04:00:02;8.90;;;5.80;;
16770;SDS011;8503;52.472;13.344;2024-03-06T04:01:31;11.82;;;5.97;;
16770;SDS011;8503;52.472;13.344;2024-03-06T04:02:55;11.85;;;5.45;;
16770;SDS011;8503;52.472;13.344;2024-03-06T04:04:18;12.40;;;6.05;;
16770;SDS011;8503;52.472;13.344;2024-03-06T04:05:43;11.50;;;6.20;;
16770;SDS011;8503;52.472;13.344;2024-03-06T04:07:05;12.60;;;6.25;;
16770;SDS011;8503;52.472;13.344;2024-03-06T04:08:30;10.77;;;6.45;;
16770;SDS011;8503;52.472;13.344;2024-03-06T04:09:53;13.77;;;6.35;;
16770;SDS011;8503;52.472;13.344;2024-03-06T04:11:17;10.40;;;6.32;;
16770;SDS011;8503;52.472;13.344;2024-03-06T04:12:41;12.68;;;5.65;;
16770;SDS011;8503;52.472;13.344;2024-03-06T04:14:03;15.48;;;5.95;;
16770;SDS011;8503;52.472;13.344;2024-03-06T04:15:27;8.65;;;5.68;;
16770;SDS011;8503;52.472;13.344;2024-03-06T04:16:50;12.38;;;6.32;;
16770;SDS011;8503;52.472;13.344;2024-03-06T04:18:14;11.57;;;6.70;;
16770;SDS011;8503;52.472;13.344;2024-03-06T04:19:36;11.65;;;6.63;;
16770;SDS011;8503;52.472;13.344;2024-03-06T04:21:01;10.32;;;5.65;;
16770;SDS011;8503;52.472;13.344;2024-03-06T04:22:25;9.48;;;5.82;;
16770;SDS011;8503;52.472;13.344;2024-03-06T04:25:14;8.18;;;5.25;;
16770;SDS011;8503;52.472;13.344;2024-03-06T04:26:37;11.68;;;5.75;;
16770;SDS011;8503;52.472;13.344;2024-03-06T04:28:01;10.10;;;6.43;;
16770;SDS011;8503;52.472;13.344;2024-03-06T04:29:23;11.68;;;6.57;;
16770;SDS011;8503;52.472;13.344;2024-03-06T04:30:47;10.38;;;5.80;;
16770;SDS011;8503;52.472;13.344;2024-03-06T04:32:09;12.15;;;5.55;;
16770;SDS011;8503;52.472;13.344;2024-03-06T04:33:34;10.43;;;5.65;;
16770;SDS011;8503;52.472;13.344;2024-03-06T04:34:58;8.77;;;5.43;;
16770;SDS011;8503;52.472;13.344;2024-03-06T04:36:21;16.00;;;6.18;;
16770;SDS011;8503;52.472;13.344;2024-03-06T04:37:44;10.13;;;5.85;;
16770;SDS011;8503;52.472;13.344;2024-03-06T04:39:08;11.18;;;5.90;;
16770;SDS011;8503;52.472;13.344;2024-03-06T04:40:33;12.30;;;6.43;;
16770;SDS011;8503;52.472;13.344;2024-03-06T04:41:56;15.05;;;7.25;;
16770;SDS011;8503;52.472;13.344;2024-03-06T04:43:19;10.35;;;6.03;;
16770;SDS011;8503;52.472;13.344;2024-03-06T04:44:42;10.13;;;5.88;;
16770;SDS011;8503;52.472;13.344;2024-03-06T04:46:11;11.02;;;6.05;;
16770;SDS011;8503;52.472;13.344;2024-03-06T04:47:36;10.35;;;5.38;;
16770;SDS011;8503;52.472;13.344;2024-03-06T04:48:58;11.93;;;6.00;;
16770;SDS011;8503;52.472;13.344;2024-03-06T04:50:21;13.35;;;5.70;;
16770;SDS011;8503;52.472;13.344;2024-03-06T04:51:44;12.45;;;6.65;;
16770;SDS011;8503;52.472;13.344;2024-03-06T04:53:07;9.52;;;4.85;;
16770;SDS011;8503;52.472;13.344;2024-03-06T04:54:33;11.55;;;6.47;;
16770;SDS011;8503;52.472;13.344;2024-03-06T04:57:19;10.90;;;5.35;;
16770;SDS011;8503;52.472;13.344;2024-03-06T04:58:42;9.57;;;5.65;;
16770;SDS011;8503;52.472;13.344;2024-03-06T05:00:06;10.82;;;6.32;;
16770;SDS011;8503;52.472;13.344;2024-03-06T05:01:30;12.23;;;6.70;;
16770;SDS011;8503;52.472;13.344;2024-03-06T05:02:53;8.25;;;5.07;;
16770;SDS011;8503;52.472;13.344;2024-03-06T05:04:34;11.98;;;6.00;;
16770;SDS011;8503;52.472;13.344;2024-03-06T05:06:15;9.85;;;5.32;;
16770;SDS011;8503;52.472;13.344;2024-03-06T05:07:57;8.82;;;6.35;;
16770;SDS011;8503;52.472;13.344;2024-03-06T05:09:39;8.02;;;5.10;;
16770;SDS011;8503;52.472;13.344;2024-03-06T05:11:20;13.98;;;6.88;;
16770;SDS011;8503;52.472;13.344;2024-03-06T05:13:03;11.73;;;6.22;;
16770;SDS011;8503;52.472;13.344;2024-03-06T05:14:43;12.20;;;5.70;;
16770;SDS011;8503;52.472;13.344;2024-03-06T05:16:24;8.88;;;5.80;;
16770;SDS011;8503;52.472;13.344;2024-03-06T05:18:06;12.65;;;6.18;;
16770;SDS011;8503;52.472;13.344;2024-03-06T05:19:48;11.55;;;5.35;;
16770;SDS011;8503;52.472;13.344;2024-03-06T05:21:28;10.48;;;6.78;;
16770;SDS011;8503;52.472;13.344;2024-03-06T05:23:09;15.57;;;7.85;;
16770;SDS011;8503;52.472;13.344;2024-03-06T05:24:50;13.13;;;7.03;;
16770;SDS011;8503;52.472;13.344;2024-03-06T05:26:31;9.20;;;5.65;;
16770;SDS011;8503;52.472;13.344;2024-03-06T05:28:11;12.75;;;6.35;;
16770;SDS011;8503;52.472;13.344;2024-03-06T05:29:52;10.88;;;5.32;;
16770;SDS011;8503;52.472;13.344;2024-03-06T05:31:33;16.20;;;6.85;;
16770;SDS011;8503;52.472;13.344;2024-03-06T05:33:14;10.20;;;5.88;;
16770;SDS011;8503;52.472;13.344;2024-03-06T05:34:55;15.73;;;7.75;;
16770;SDS011;8503;52.472;13.344;2024-03-06T05:36:37;12.40;;;6.15;;
16770;SDS011;8503;52.472;13.344;2024-03-06T05:38:19;13.52;;;5.53;;
16770;SDS011;8503;52.472;13.344;2024-03-06T05:40:02;11.18;;;6.10;;
16770;SDS011;8503;52.472;13.344;2024-03-06T05:41:44;12.40;;;6.65;;
16770;SDS011;8503;52.472;13.344;2024-03-06T05:43:24;10.43;;;5.43;;
16770;SDS011;8503;52.472;13.344;2024-03-06T05:45:06;11.57;;;5.38;;
16770;SDS011;8503;52.472;13.344;2024-03-06T05:46:49;12.73;;;5.97;;
16770;SDS011;8503;52.472;13.344;2024-03-06T05:48:30;10.93;;;6.05;;
16770;SDS011;8503;52.472;13.344;2024-03-06T05:50:12;10.50;;;5.95;;
16770;SDS011;8503;52.472;13.344;2024-03-06T05:51:52;10.85;;;6.00;;
16770;SDS011;8503;52.472;13.344;2024-03-06T05:53:35;9.38;;;5.72;;
16770;SDS011;8503;52.472;13.344;2024-03-06T05:55:19;13.57;;;5.63;;
16770;SDS011;8503;52.472;13.344;2024-03-06T05:57:00;7.55;;;3.60;;
16770;SDS011;8503;52.472;13.344;2024-03-06T05:58:41;8.18;;;4.22;;
16770;SDS011;8503;52.472;13.344;2024-03-06T06:00:08;11.13;;;6.10;;
16770;SDS011;8503;52.472;13.344;2024-03-06T06:01:33;10.43;;;5.97;;
16770;SDS011;8503;52.472;13.344;2024-03-06T06:02:55;10.13;;;5.32;;
16770;SDS011;8503;52.472;13.344;2024-03-06T06:04:19;11.48;;;4.38;;
16770;SDS011;8503;52.472;13.344;2024-03-06T06:05:43;12.60;;;5.60;;
16770;SDS011;8503;52.472;13.344;2024-03-06T06:07:06;7.53;;;4.57;;
16770;SDS011;8503;52.472;13.344;2024-03-06T06:08:29;6.68;;;4.32;;
16770;SDS011;8503;52.472;13.344;2024-03-06T06:09:54;9.57;;;5.53;;
16770;SDS011;8503;52.472;13.344;2024-03-06T06:11:18;11.00;;;6.22;;
16770;SDS011;8503;52.472;13.344;2024-03-06T06:12:42;14.52;;;5.63;;
16770;SDS011;8503;52.472;13.344;2024-03-06T06:14:04;8.30;;;4.40;;
16770;SDS011;8503;52.472;13.344;2024-03-06T06:15:28;11.45;;;5.95;;
16770;SDS011;8503;52.472;13.344;2024-03-06T06:16:51;12.43;;;6.38;;
16770;SDS011;8503;52.472;13.344;2024-03-06T06:18:15;14.10;;;7.13;;
16770;SDS011;8503;52.472;13.344;2024-03-06T06:19:37;7.95;;;5.72;;
16770;SDS011;8503;52.472;13.344;2024-03-06T06:21:01;12.15;;;5.65;;
16770;SDS011;8503;52.472;13.344;2024-03-06T06:22:28;5.20;;;3.58;;
16770;SDS011;8503;52.472;13.344;2024-03-06T06:23:51;13.40;;;5.72;;
16770;SDS011;8503;52.472;13.344;2024-03-06T06:25:14;12.95;;;6.45;;
16770;SDS011;8503;52.472;13.344;2024-03-06T06:26:39;7.35;;;5.28;;
16770;SDS011;8503;52.472;13.344;2024-03-06T06:28:03;9.43;;;5.85;;
16770;SDS011;8503;52.472;13.344;2024-03-06T06:29:27;8.70;;;5.47;;
16770;SDS011;8503;52.472;13.344;2024-03-06T06:30:50;6.78;;;4.32;;
16770;SDS011;8503;52.472;13.344;2024-03-06T06:32:14;8.55;;;4.15;;
16770;SDS011;8503;52.472;13.344;2024-03-06T06:33:36;7.90;;;4.53;;
16770;SDS011;8503;52.472;13.344;2024-03-06T06:35:00;10.43;;;6.00;;
16770;SDS011;8503;52.472;13.344;2024-03-06T06:36:23;10.43;;;6.03;;
16770;SDS011;8503;52.472;13.344;2024-03-06T06:37:46;12.85;;;6.55;;
16770;SDS011;8503;52.472;13.344;2024-03-06T06:39:08;13.30;;;6.38;;
16770;SDS011;8503;52.472;13.344;2024-03-06T06:40:33;12.23;;;6.25;;
16770;SDS011;8503;52.472;13.344;2024-03-06T06:41:57;11.45;;;6.70;;
16770;SDS011;8503;52.472;13.344;2024-03-06T06:43:22;15.88;;;6.68;;
16770;SDS011;8503;52.472;13.344;2024-03-06T06:44:44;11.52;;;6.15;;
16770;SDS011;8503;52.472;13.344;2024-03-06T06:46:08;14.20;;;6.43;;
16770;SDS011;8503;52.472;13.344;2024-03-06T06:47:30;11.38;;;6.05;;
16770;SDS011;8503;52.472;13.344;2024-03-06T06:48:54;12.90;;;5.93;;
16770;SDS011;8503;52.472;13.344;2024-03-06T06:50:16;13.25;;;6.88;;
16770;SDS011;8503;52.472;13.344;2024-03-06T06:51:43;15.35;;;7.50;;
16770;SDS011;8503;52.472;13.344;2024-03-06T06:53:05;13.68;;;7.60;;
16770;SDS011;8503;52.472;13.344;2024-03-06T06:54:29;11.95;;;5.95;;
16770;SDS011;8503;52.472;13.344;2024-03-06T06:55:51;6.25;;;4.03;;
16770;SDS011;8503;52.472;13.344;2024-03-06T06:57:16;11.32;;;6.25;;
16770;SDS011;8503;52.472;13.344;2024-03-06T06:58:38;14.32;;;6.25;;
16770;SDS011;8503;52.472;13.344;2024-03-06T07:00:04;10.90;;;6.28;;
16770;SDS011;8503;52.472;13.344;2024-03-06T07:01:32;14.50;;;8.20;;
16770;SDS011;8503;52.472;13.344;2024-03-06T07:02:55;12.85;;;7.28;;
16770;SDS011;8503;52.472;13.344;2024-03-06T07:04:22;14.38;;;6.80;;
16770;SDS011;8503;52.472;13.344;2024-03-06T07:05:46;10.93;;;6.53;;
16770;SDS011;8503;52.472;13.344;2024-03-06T07:07:09;15.15;;;6.63;;
16770;SDS011;8503;52.472;13.344;2024-03-06T07:08:32;10.93;;;7.13;;
16770;SDS011;8503;52.472;13.344;2024-03-06T07:09:55;12.35;;;6.28;;
16770;SDS011;8503;52.472;13.344;2024-03-06T07:11:18;12.82;;;7.30;;
16770;SDS011;8503;52.472;13.344;2024-03-06T07:12:43;12.13;;;6.97;;
16770;SDS011;8503;52.472;13.344;2024-03-06T07:14:06;12.77;;;7.32;;
16770;SDS011;8503;52.472;13.344;2024-03-06T07:15:29;12.23;;;7.28;;
16770;SDS011;8503;52.472;13.344;2024-03-06T07:16:52;13.48;;;6.00;;
16770;SDS011;8503;52.472;13.344;2024-03-06T07:18:15;12.20;;;7.72;;
16770;SDS011;8503;52.472;13.344;2024-03-06T07:19:38;12.43;;;7.55;;
16770;SDS011;8503;52.472;13.344;2024-03-06T07:21:01;13.68;;;7.35;;
16770;SDS011;8503;52.472;13.344;2024-03-06T07:22:24;10.15;;;7.05;;
16770;SDS011;8503;52.472;13.344;2024-03-06T07:23:47;10.52;;;6.63;;
16770;SDS011;8503;52.472;13.344;2024-03-06T07:25:11;10.82;;;6.50;;
16770;SDS011;8503;52.472;13.344;2024-03-06T07:26:33;12.15;;;7.45;;
16770;SDS011;8503;52.472;13.344;2024-03-06T07:27:58;10.13;;;5.65;;
16770;SDS011;8503;52.472;13.344;2024-03-06T07:29:21;13.43;;;7.05;;
16770;SDS011;8503;52.472;13.344;2024-03-06T07:30:45;10.43;;;7.30;;
16770;SDS011;8503;52.472;13.344;2024-03-06T07:32:07;10.68;;;7.15;;
16770;SDS011;8503;52.472;13.344;2024-03-06T07:33:32;11.60;;;6.07;;
16770;SDS011;8503;52.472;13.344;2024-03-06T07:34:55;12.88;;;8.35;;
16770;SDS011;8503;52.472;13.344;2024-03-06T07:36:20;11.05;;;7.30;;
16770;SDS011;8503;52.472;13.344;2024-03-06T07:37:43;7.47;;;4.43;;
16770;SDS011;8503;52.472;13.344;2024-03-06T07:39:07;9.63;;;6.25;;
16770;SDS011;8503;52.472;13.344;2024-03-06T07:40:29;11.07;;;7.05;;
16770;SDS011;8503;52.472;13.344;2024-03-06T07:41:53;9.60;;;6.45;;
16770;SDS011;8503;52.472;13.344;2024-03-06T07:43:17;11.95;;;7.20;;
16770;SDS011;8503;52.472;13.344;2024-03-06T07:44:41;12.85;;;7.65;;
16770;SDS011;8503;52.472;13.344;2024-03-06T07:46:03;13.15;;;7.90;;
16770;SDS011;8503;52.472;13.344;2024-03-06T07:47:31;10.55;;;6.55;;
16770;SDS011;8503;52.472;13.344;2024-03-06T07:48:54;9.65;;;7.18;;
16770;SDS011;8503;52.472;13.344;2024-03-06T07:50:20;7.78;;;5.25;;
16770;SDS011;8503;52.472;13.344;2024-03-06T07:51:47;8.43;;;5.03;;
16770;SDS011;8503;52.472;13.344;2024-03-06T07:53:10;1.73;;;1.42;;
16770;SDS011;8503;52.472;13.344;2024-03-06T07:54:40;1.70;;;1.55;;
16770;SDS011;8503;52.472;13.344;2024-03-06T07:56:05;1.70;;;1.60;;
16770;SDS011;8503;52.472;13.344;2024-03-06T07:57:27;1.50;;;1.40;;
16770;SDS011;8503;52.472;13.344;2024-03-06T07:58:52;1.40;;;1.30;;
16770;SDS011;8503;52.472;13.344;2024-03-06T08:00:16;1.10;;;1.00;;
16770;SDS011;8503;52.472;13.344;2024-03-06T08:01:41;2.17;;;0.70;;
16770;SDS011;8503;52.472;13.344;2024-03-06T08:03:03;0.50;;;0.50;;
16770;SDS011;8503;52.472;13.344;2024-03-06T08:04:27;0.30;;;0.30;;
16770;SDS011;8503;52.472;13.344;2024-03-06T08:05:51;0.40;;;0.30;;
16770;SDS011;8503;52.472;13.344;2024-03-06T08:07:15;0.30;;;0.30;;
16770;SDS011;8503;52.472;13.344;2024-03-06T08:08:39;0.85;;;0.30;;
16770;SDS011;8503;52.472;13.344;2024-03-06T08:10:03;0.30;;;0.30;;
16770;SDS011;8503;52.472;13.344;2024-03-06T08:11:27;0.17;;;0.17;;
16770;SDS011;8503;52.472;13.344;2024-03-06T08:12:50;0.20;;;0.20;;
16770;SDS011;8503;52.472;13.344;2024-03-06T08:14:14;0.20;;;0.20;;
16770;SDS011;8503;52.472;13.344;2024-03-06T08:15:38;0.10;;;0.10;;
16770;SDS011;8503;52.472;13.344;2024-03-06T08:17:01;0.10;;;0.10;;
16770;SDS011;8503;52.472;13.344;2024-03-06T08:18:25;0.13;;;0.13;;
16770;SDS011;8503;52.472;13.344;2024-03-06T08:19:48;0.10;;;0.10;;
16770;SDS011;8503;52.472;13.344;2024-03-06T08:21:11;0.10;;;0.10;;
16770;SDS011;8503;52.472;13.344;2024-03-06T08:22:34;0.30;;;0.30;;
16770;SDS011;8503;52.472;13.344;2024-03-06T08:23:59;0.20;;;0.15;;
16770;SDS011;8503;52.472;13.344;2024-03-06T08:25:22;0.13;;;0.13;;
16770;SDS011;8503;52.472;13.344;2024-03-06T08:26:46;0.10;;;0.10;;
16770;SDS011;8503;52.472;13.344;2024-03-06T08:28:09;0.10;;;0.10;;
16770;SDS011;8503;52.472;13.344;2024-03-06T08:29:34;0.10;;;0.10;;
16770;SDS011;8503;52.472;13.344;2024-03-06T08:30:57;0.10;;;0.10;;
16770;SDS011;8503;52.472;13.344;2024-03-06T08:32:20;0.10;;;0.10;;
16770;SDS011;8503;52.472;13.344;2024-03-06T08:33:43;0.10;;;0.10;;
16770;SDS011;8503;52.472;13.344;2024-03-06T08:35:08;0.10;;;0.10;;
16770;SDS011;8503;52.472;13.344;2024-03-06T08:36:32;0.10;;;0.10;;